Airfield :
LOGIN :

Register | Disclaimer

   EN    FR    IT 

 










Legend :    VFR   Marginal VFR   IFR   Intensive IFR   Very Intensive IFR
Visi :
Ceiling :
>= 8 km
>= 3000ft
5 to 8 km
1000 to 3000 ft
1500m to 5 km
500 to 1000 ft
800 to 1500m
200 to 500 ft
< 800m
< 200 ft
Symbols :   Thunderstorms  Fog  Heavy snow  Heavy precipitations  Wind > 20 kt
SIGMETs :     Misc.  Thunderstorms  Icing  Turbulence  Mountain Waves  Volcanic Ashes






- Airport Elevation : 13 ft
- IATA code : LYX


EGMD - Lydd

CURRENT METAR :
  • 150420Z AUTO 31002KT 2400 BR BKN006/// OVC009/// 20/19 Q1014

EXPIRED METARs :
  • 150350Z AUTO 00000KT 150V250 3300 HZ FEW005/// SCT008/// BKN012/// 20/19 Q1014
  • 150320Z AUTO 16001KT 5000 HZ SCT007/// BKN011/// OVC020/// 20/19 Q1014
  • 150250Z AUTO VRB01KT 7000 BKN006/// BKN010/// OVC018/// 20/19 Q1014
  • 150220Z AUTO 00000KT 290V080 9000 SCT009/// OVC017/// 20/19 Q1014
  • 150150Z AUTO 36002KT 7000 SCT012/// OVC016/// 20/19 Q1014

TAF TAF EGMD
Valid from the 15 at 03:00 until the 15 at 12:00 UTC


150203Z 1503/1512 36002KT 9999 BKN020
TEMPO 1503/1512 7000 BKN014
PROB30
TEMPO 1503/1512 3000 +TSRA BKN003
ATIS : +44 1797 322 422



MET'MAP, your aeronautical weather chart ! - Copyright ORBIFLY December 2007 - Disclaimer

ORBIFLY MET'MAP TEAM :

Programming & Development : Alexandra Zaïnal
Concept & original design : Baudouin d'Aumeries
Assistance for programming : Marc-Olivier Méhu
Technical & hardware support : Manuel Goepfert

Contact : metmap@orbifly.com




SOURCES & CREDITS :

   NOAA